sensor_id;sensor_type;location;lat;lon;timestamp;temperature;humidity
13707;DHT22;6925;47.816;13.072;2022-09-30T00:01:27;12.40;86.40
13707;DHT22;6925;47.816;13.072;2022-09-30T00:03:55;12.50;86.50
13707;DHT22;6925;47.816;13.072;2022-09-30T00:06:24;12.50;86.20
13707;DHT22;6925;47.816;13.072;2022-09-30T00:08:52;12.50;86.30
13707;DHT22;6925;47.816;13.072;2022-09-30T00:11:23;12.50;86.20
13707;DHT22;6925;47.816;13.072;2022-09-30T00:13:51;12.50;86.30
13707;DHT22;6925;47.816;13.072;2022-09-30T00:16:19;12.50;86.30
13707;DHT22;6925;47.816;13.072;2022-09-30T00:18:47;12.50;86.20
13707;DHT22;6925;47.816;13.072;2022-09-30T00:21:15;12.50;86.40
13707;DHT22;6925;47.816;13.072;2022-09-30T00:23:43;12.50;86.20
13707;DHT22;6925;47.816;13.072;2022-09-30T00:26:13;12.50;86.30
13707;DHT22;6925;47.816;13.072;2022-09-30T00:28:43;12.50;86.50
13707;DHT22;6925;47.816;13.072;2022-09-30T00:31:12;12.40;86.30
13707;DHT22;6925;47.816;13.072;2022-09-30T00:33:40;12.50;86.60
13707;DHT22;6925;47.816;13.072;2022-09-30T00:36:07;12.50;86.50
13707;DHT22;6925;47.816;13.072;2022-09-30T00:41:41;12.50;86.50
13707;DHT22;6925;47.816;13.072;2022-09-30T00:44:46;12.50;87.10
13707;DHT22;6925;47.816;13.072;2022-09-30T00:50:29;12.50;86.70
13707;DHT22;6925;47.816;13.072;2022-09-30T00:53:03;12.40;86.50
13707;DHT22;6925;47.816;13.072;2022-09-30T00:55:34;12.50;86.70
13707;DHT22;6925;47.816;13.072;2022-09-30T00:58:04;12.40;86.70
13707;DHT22;6925;47.816;13.072;2022-09-30T01:00:33;12.40;86.60
13707;DHT22;6925;47.816;13.072;2022-09-30T01:03:01;12.40;86.70
13707;DHT22;6925;47.816;13.072;2022-09-30T01:05:33;12.50;86.60
13707;DHT22;6925;47.816;13.072;2022-09-30T01:08:03;12.50;86.20
13707;DHT22;6925;47.816;13.072;2022-09-30T01:10:31;12.40;86.30
13707;DHT22;6925;47.816;13.072;2022-09-30T01:12:59;12.40;86.40
13707;DHT22;6925;47.816;13.072;2022-09-30T01:15:41;12.40;86.50
13707;DHT22;6925;47.816;13.072;2022-09-30T01:18:18;12.40;86.40
13707;DHT22;6925;47.816;13.072;2022-09-30T01:21:43;12.40;86.50
13707;DHT22;6925;47.816;13.072;2022-09-30T01:27:40;12.50;86.80
13707;DHT22;6925;47.816;13.072;2022-09-30T01:30:17;12.40;86.50
13707;DHT22;6925;47.816;13.072;2022-09-30T01:36:05;12.40;86.80
13707;DHT22;6925;47.816;13.072;2022-09-30T01:38:44;12.40;86.80
13707;DHT22;6925;47.816;13.072;2022-09-30T01:41:24;12.40;87.50
13707;DHT22;6925;47.816;13.072;2022-09-30T01:43:57;12.40;86.90
13707;DHT22;6925;47.816;13.072;2022-09-30T01:46:36;12.40;87.00
13707;DHT22;6925;47.816;13.072;2022-09-30T01:49:12;12.40;86.90
13707;DHT22;6925;47.816;13.072;2022-09-30T01:51:50;12.50;87.00
13707;DHT22;6925;47.816;13.072;2022-09-30T01:54:26;12.50;86.80
13707;DHT22;6925;47.816;13.072;2022-09-30T01:57:00;12.40;86.70
13707;DHT22;6925;47.816;13.072;2022-09-30T01:59:31;12.40;86.70
13707;DHT22;6925;47.816;13.072;2022-09-30T02:02:03;12.40;87.00
13707;DHT22;6925;47.816;13.072;2022-09-30T02:04:36;12.40;87.00
13707;DHT22;6925;47.816;13.072;2022-09-30T02:07:11;12.40;86.00
13707;DHT22;6925;47.816;13.072;2022-09-30T02:09:41;12.30;85.90
13707;DHT22;6925;47.816;13.072;2022-09-30T02:12:17;12.40;86.50
13707;DHT22;6925;47.816;13.072;2022-09-30T02:14:48;12.30;86.60
13707;DHT22;6925;47.816;13.072;2022-09-30T02:17:19;12.40;86.80
13707;DHT22;6925;47.816;13.072;2022-09-30T02:19:49;12.40;86.30
13707;DHT22;6925;47.816;13.072;2022-09-30T02:22:23;12.40;86.40
13707;DHT22;6925;47.816;13.072;2022-09-30T02:24:58;12.40;86.60
13707;DHT22;6925;47.816;13.072;2022-09-30T02:27:33;12.40;86.50
13707;DHT22;6925;47.816;13.072;2022-09-30T02:30:08;12.40;86.50
13707;DHT22;6925;47.816;13.072;2022-09-30T02:32:40;12.40;86.50
13707;DHT22;6925;47.816;13.072;2022-09-30T02:35:11;12.40;86.50
13707;DHT22;6925;47.816;13.072;2022-09-30T02:37:44;12.30;86.30
13707;DHT22;6925;47.816;13.072;2022-09-30T02:40:15;12.40;86.60
13707;DHT22;6925;47.816;13.072;2022-09-30T02:42:46;12.30;86.60
13707;DHT22;6925;47.816;13.072;2022-09-30T02:45:16;12.40;86.60
13707;DHT22;6925;47.816;13.072;2022-09-30T02:47:55;12.40;86.80
13707;DHT22;6925;47.816;13.072;2022-09-30T02:50:29;12.40;86.80
13707;DHT22;6925;47.816;13.072;2022-09-30T02:53:06;12.40;86.80
13707;DHT22;6925;47.816;13.072;2022-09-30T02:55:43;12.40;86.80
13707;DHT22;6925;47.816;13.072;2022-09-30T02:58:29;12.40;86.90
13707;DHT22;6925;47.816;13.072;2022-09-30T03:01:01;12.40;86.70
13707;DHT22;6925;47.816;13.072;2022-09-30T03:03:32;12.40;86.90
13707;DHT22;6925;47.816;13.072;2022-09-30T03:06:01;12.40;86.80
13707;DHT22;6925;47.816;13.072;2022-09-30T03:08:30;12.40;87.00
13707;DHT22;6925;47.816;13.072;2022-09-30T03:10:57;12.40;87.00
13707;DHT22;6925;47.816;13.072;2022-09-30T03:16:26;12.40;87.00
13707;DHT22;6925;47.816;13.072;2022-09-30T03:19:16;12.40;86.80
13707;DHT22;6925;47.816;13.072;2022-09-30T03:22:13;12.40;86.70
13707;DHT22;6925;47.816;13.072;2022-09-30T03:24:59;12.40;86.70
13707;DHT22;6925;47.816;13.072;2022-09-30T03:27:32;12.40;86.80
13707;DHT22;6925;47.816;13.072;2022-09-30T03:30:04;12.40;86.80
13707;DHT22;6925;47.816;13.072;2022-09-30T03:32:52;12.40;87.00
13707;DHT22;6925;47.816;13.072;2022-09-30T03:35:29;12.40;86.90
13707;DHT22;6925;47.816;13.072;2022-09-30T03:38:04;12.40;86.90
13707;DHT22;6925;47.816;13.072;2022-09-30T03:40:53;12.40;87.10
13707;DHT22;6925;47.816;13.072;2022-09-30T03:43:28;12.40;86.80
13707;DHT22;6925;47.816;13.072;2022-09-30T03:46:00;12.40;86.60
13707;DHT22;6925;47.816;13.072;2022-09-30T03:48:39;12.40;87.00
13707;DHT22;6925;47.816;13.072;2022-09-30T03:51:08;12.40;87.10
13707;DHT22;6925;47.816;13.072;2022-09-30T03:53:39;12.40;87.20
13707;DHT22;6925;47.816;13.072;2022-09-30T03:56:09;12.40;87.30
13707;DHT22;6925;47.816;13.072;2022-09-30T03:58:40;12.40;87.20
13707;DHT22;6925;47.816;13.072;2022-09-30T04:01:15;12.40;87.50
13707;DHT22;6925;47.816;13.072;2022-09-30T04:04:08;12.40;87.40
13707;DHT22;6925;47.816;13.072;2022-09-30T04:06:35;12.40;87.60
13707;DHT22;6925;47.816;13.072;2022-09-30T04:09:05;12.40;87.40
13707;DHT22;6925;47.816;13.072;2022-09-30T04:11:34;12.40;87.20
13707;DHT22;6925;47.816;13.072;2022-09-30T04:14:01;12.40;87.00
13707;DHT22;6925;47.816;13.072;2022-09-30T04:16:31;12.30;86.80
13707;DHT22;6925;47.816;13.072;2022-09-30T04:25:35;12.30;87.80
13707;DHT22;6925;47.816;13.072;2022-09-30T04:28:06;12.30;87.50
13707;DHT22;6925;47.816;13.072;2022-09-30T04:42:45;12.30;87.30
13707;DHT22;6925;47.816;13.072;2022-09-30T05:21:26;12.40;88.00
13707;DHT22;6925;47.816;13.072;2022-09-30T05:23:54;12.40;88.20
13707;DHT22;6925;47.816;13.072;2022-09-30T05:26:22;12.40;88.20
13707;DHT22;6925;47.816;13.072;2022-09-30T05:28:50;12.40;88.00
13707;DHT22;6925;47.816;13.072;2022-09-30T05:31:17;12.30;88.30
13707;DHT22;6925;47.816;13.072;2022-09-30T05:33:45;12.40;88.60
13707;DHT22;6925;47.816;13.072;2022-09-30T05:36:14;12.40;88.40
13707;DHT22;6925;47.816;13.072;2022-09-30T05:38:49;12.40;88.40
13707;DHT22;6925;47.816;13.072;2022-09-30T05:41:17;12.40;88.70
13707;DHT22;6925;47.816;13.072;2022-09-30T05:43:45;12.40;88.80
13707;DHT22;6925;47.816;13.072;2022-09-30T05:46:13;12.40;88.70
13707;DHT22;6925;47.816;13.072;2022-09-30T05:48:41;12.40;88.60
13707;DHT22;6925;47.816;13.072;2022-09-30T05:51:08;12.40;88.50
13707;DHT22;6925;47.816;13.072;2022-09-30T05:53:36;12.50;88.30
13707;DHT22;6925;47.816;13.072;2022-09-30T05:56:06;12.40;88.20
13707;DHT22;6925;47.816;13.072;2022-09-30T05:58:34;12.50;88.30
13707;DHT22;6925;47.816;13.072;2022-09-30T06:01:04;12.50;88.40
13707;DHT22;6925;47.816;13.072;2022-09-30T06:03:33;12.50;88.40
13707;DHT22;6925;47.816;13.072;2022-09-30T06:06:01;12.40;88.60
13707;DHT22;6925;47.816;13.072;2022-09-30T06:08:28;12.40;88.90
13707;DHT22;6925;47.816;13.072;2022-09-30T06:10:55;12.50;89.00
13707;DHT22;6925;47.816;13.072;2022-09-30T06:13:26;12.50;89.00
13707;DHT22;6925;47.816;13.072;2022-09-30T06:15:57;12.50;88.80
13707;DHT22;6925;47.816;13.072;2022-09-30T06:18:24;12.50;89.10
13707;DHT22;6925;47.816;13.072;2022-09-30T06:20:54;12.50;88.60
13707;DHT22;6925;47.816;13.072;2022-09-30T06:23:22;12.50;88.70
13707;DHT22;6925;47.816;13.072;2022-09-30T06:25:51;12.50;88.30
13707;DHT22;6925;47.816;13.072;2022-09-30T06:28:19;12.50;88.30
13707;DHT22;6925;47.816;13.072;2022-09-30T06:30:48;12.50;88.70
13707;DHT22;6925;47.816;13.072;2022-09-30T06:33:15;12.50;88.70
13707;DHT22;6925;47.816;13.072;2022-09-30T06:35:43;12.50;88.40
13707;DHT22;6925;47.816;13.072;2022-09-30T06:38:12;12.50;87.70
13707;DHT22;6925;47.816;13.072;2022-09-30T06:40:40;12.50;88.20
13707;DHT22;6925;47.816;13.072;2022-09-30T06:43:07;12.50;88.00
13707;DHT22;6925;47.816;13.072;2022-09-30T06:45:36;12.40;87.40
13707;DHT22;6925;47.816;13.072;2022-09-30T06:48:06;12.40;88.10
13707;DHT22;6925;47.816;13.072;2022-09-30T06:50:34;12.40;88.30
13707;DHT22;6925;47.816;13.072;2022-09-30T06:53:04;12.40;87.90
13707;DHT22;6925;47.816;13.072;2022-09-30T06:55:34;12.40;88.40
13707;DHT22;6925;47.816;13.072;2022-09-30T06:58:04;12.40;88.80
13707;DHT22;6925;47.816;13.072;2022-09-30T07:00:33;12.50;88.40
13707;DHT22;6925;47.816;13.072;2022-09-30T07:03:00;12.40;88.70
13707;DHT22;6925;47.816;13.072;2022-09-30T07:05:30;12.50;89.00
13707;DHT22;6925;47.816;13.072;2022-09-30T07:07:58;12.50;88.50
13707;DHT22;6925;47.816;13.072;2022-09-30T07:10:26;12.50;88.60
13707;DHT22;6925;47.816;13.072;2022-09-30T07:12:53;12.50;89.10
13707;DHT22;6925;47.816;13.072;2022-09-30T07:15:20;12.50;89.60
13707;DHT22;6925;47.816;13.072;2022-09-30T07:17:51;12.60;89.30
13707;DHT22;6925;47.816;13.072;2022-09-30T07:20:18;12.60;88.40
13707;DHT22;6925;47.816;13.072;2022-09-30T07:22:47;12.60;89.50
13707;DHT22;6925;47.816;13.072;2022-09-30T07:25:15;12.70;89.00
13707;DHT22;6925;47.816;13.072;2022-09-30T07:27:43;12.70;88.40
13707;DHT22;6925;47.816;13.072;2022-09-30T07:30:11;12.70;89.00
13707;DHT22;6925;47.816;13.072;2022-09-30T07:32:39;12.70;88.90
13707;DHT22;6925;47.816;13.072;2022-09-30T07:35:06;12.70;89.10
13707;DHT22;6925;47.816;13.072;2022-09-30T07:37:34;12.80;88.90
13707;DHT22;6925;47.816;13.072;2022-09-30T07:40:05;12.80;88.70
13707;DHT22;6925;47.816;13.072;2022-09-30T07:42:36;12.90;88.40
13707;DHT22;6925;47.816;13.072;2022-09-30T07:45:06;12.90;88.90
13707;DHT22;6925;47.816;13.072;2022-09-30T07:47:35;13.00;90.10
13707;DHT22;6925;47.816;13.072;2022-09-30T07:50:03;13.00;89.20
13707;DHT22;6925;47.816;13.072;2022-09-30T07:52:34;13.10;89.30
13707;DHT22;6925;47.816;13.072;2022-09-30T07:55:04;13.10;88.70
13707;DHT22;6925;47.816;13.072;2022-09-30T07:57:31;13.20;89.10
13707;DHT22;6925;47.816;13.072;2022-09-30T08:00:13;13.20;89.40
13707;DHT22;6925;47.816;13.072;2022-09-30T08:02:41;13.30;89.00
13707;DHT22;6925;47.816;13.072;2022-09-30T08:05:08;13.20;88.00
13707;DHT22;6925;47.816;13.072;2022-09-30T08:07:36;13.20;87.90
13707;DHT22;6925;47.816;13.072;2022-09-30T08:10:09;13.20;88.10
13707;DHT22;6925;47.816;13.072;2022-09-30T08:12:36;13.20;88.20
13707;DHT22;6925;47.816;13.072;2022-09-30T08:15:04;13.20;87.70
13707;DHT22;6925;47.816;13.072;2022-09-30T08:17:34;13.30;88.00
13707;DHT22;6925;47.816;13.072;2022-09-30T08:20:01;13.30;88.10
13707;DHT22;6925;47.816;13.072;2022-09-30T08:22:29;13.40;87.70
13707;DHT22;6925;47.816;13.072;2022-09-30T08:24:56;13.40;87.70
13707;DHT22;6925;47.816;13.072;2022-09-30T08:27:25;13.40;87.40
13707;DHT22;6925;47.816;13.072;2022-09-30T08:29:53;13.50;87.50
13707;DHT22;6925;47.816;13.072;2022-09-30T08:32:20;13.50;87.00
13707;DHT22;6925;47.816;13.072;2022-09-30T08:34:48;13.60;87.10
13707;DHT22;6925;47.816;13.072;2022-09-30T08:37:15;13.60;87.30
13707;DHT22;6925;47.816;13.072;2022-09-30T08:39:43;13.70;86.00
13707;DHT22;6925;47.816;13.072;2022-09-30T08:42:33;13.70;86.60
13707;DHT22;6925;47.816;13.072;2022-09-30T08:45:09;13.70;85.10
13707;DHT22;6925;47.816;13.072;2022-09-30T08:47:45;13.80;86.80
13707;DHT22;6925;47.816;13.072;2022-09-30T08:50:21;13.80;88.50
13707;DHT22;6925;47.816;13.072;2022-09-30T08:52:54;14.10;88.00
13707;DHT22;6925;47.816;13.072;2022-09-30T08:55:24;14.30;87.40
13707;DHT22;6925;47.816;13.072;2022-09-30T08:57:57;14.40;87.80
13707;DHT22;6925;47.816;13.072;2022-09-30T09:00:26;14.60;85.60
13707;DHT22;6925;47.816;13.072;2022-09-30T09:02:57;14.70;85.60
13707;DHT22;6925;47.816;13.072;2022-09-30T09:05:44;14.70;83.00
13707;DHT22;6925;47.816;13.072;2022-09-30T09:08:20;14.70;82.70
13707;DHT22;6925;47.816;13.072;2022-09-30T09:10:57;14.90;83.40
13707;DHT22;6925;47.816;13.072;2022-09-30T09:13:52;15.00;81.10
13707;DHT22;6925;47.816;13.072;2022-09-30T09:16:30;15.10;80.00
13707;DHT22;6925;47.816;13.072;2022-09-30T09:19:04;15.10;79.70
13707;DHT22;6925;47.816;13.072;2022-09-30T09:21:45;15.30;81.30
13707;DHT22;6925;47.816;13.072;2022-09-30T09:24:36;15.40;81.00
13707;DHT22;6925;47.816;13.072;2022-09-30T09:27:20;15.70;80.50
13707;DHT22;6925;47.816;13.072;2022-09-30T09:29:57;15.80;79.00
13707;DHT22;6925;47.816;13.072;2022-09-30T09:32:27;16.00;76.60
13707;DHT22;6925;47.816;13.072;2022-09-30T09:35:14;16.00;76.30
13707;DHT22;6925;47.816;13.072;2022-09-30T09:58:37;17.80;74.30
13707;DHT22;6925;47.816;13.072;2022-09-30T10:01:10;18.00;73.80
13707;DHT22;6925;47.816;13.072;2022-09-30T10:04:14;18.00;74.10
13707;DHT22;6925;47.816;13.072;2022-09-30T10:06:53;18.20;74.40
13707;DHT22;6925;47.816;13.072;2022-09-30T10:09:41;18.30;72.80
13707;DHT22;6925;47.816;13.072;2022-09-30T10:12:27;18.30;71.40
13707;DHT22;6925;47.816;13.072;2022-09-30T10:15:20;18.20;70.60
13707;DHT22;6925;47.816;13.072;2022-09-30T11:38:19;19.30;63.90
13707;DHT22;6925;47.816;13.072;2022-09-30T11:41:02;19.30;64.30
13707;DHT22;6925;47.816;13.072;2022-09-30T11:43:40;19.30;64.20
13707;DHT22;6925;47.816;13.072;2022-09-30T11:46:38;19.20;64.10
13707;DHT22;6925;47.816;13.072;2022-09-30T11:52:22;19.10;64.00
13707;DHT22;6925;47.816;13.072;2022-09-30T11:58:38;18.90;62.80
13707;DHT22;6925;47.816;13.072;2022-09-30T12:01:18;18.80;66.20
13707;DHT22;6925;47.816;13.072;2022-09-30T12:03:59;18.90;66.00
13707;DHT22;6925;47.816;13.072;2022-09-30T12:06:32;18.80;67.20
13707;DHT22;6925;47.816;13.072;2022-09-30T12:09:05;18.80;66.00
13707;DHT22;6925;47.816;13.072;2022-09-30T12:11:41;18.80;66.60
13707;DHT22;6925;47.816;13.072;2022-09-30T12:27:14;18.30;66.80
13707;DHT22;6925;47.816;13.072;2022-09-30T12:29:47;18.20;66.10
13707;DHT22;6925;47.816;13.072;2022-09-30T12:33:16;18.10;65.50
13707;DHT22;6925;47.816;13.072;2022-09-30T12:36:16;18.00;65.60
13707;DHT22;6925;47.816;13.072;2022-09-30T12:39:48;17.90;67.90
13707;DHT22;6925;47.816;13.072;2022-09-30T12:43:06;18.00;66.80
13707;DHT22;6925;47.816;13.072;2022-09-30T12:46:14;18.00;68.90
13707;DHT22;6925;47.816;13.072;2022-09-30T14:09:33;17.20;69.60
13707;DHT22;6925;47.816;13.072;2022-09-30T14:12:15;17.20;68.90
13707;DHT22;6925;47.816;13.072;2022-09-30T14:15:06;17.20;69.40
13707;DHT22;6925;47.816;13.072;2022-09-30T14:17:47;17.20;70.40
13707;DHT22;6925;47.816;13.072;2022-09-30T14:20:36;17.10;68.70
13707;DHT22;6925;47.816;13.072;2022-09-30T14:23:12;17.00;69.10
13707;DHT22;6925;47.816;13.072;2022-09-30T14:25:52;17.00;69.20
13707;DHT22;6925;47.816;13.072;2022-09-30T14:28:30;16.90;69.40
13707;DHT22;6925;47.816;13.072;2022-09-30T15:35:10;16.20;72.50
13707;DHT22;6925;47.816;13.072;2022-09-30T15:37:39;16.20;72.90
13707;DHT22;6925;47.816;13.072;2022-09-30T15:40:12;16.10;72.40
13707;DHT22;6925;47.816;13.072;2022-09-30T15:43:01;16.10;73.50
13707;DHT22;6925;47.816;13.072;2022-09-30T15:45:35;16.10;72.40
13707;DHT22;6925;47.816;13.072;2022-09-30T15:56:57;16.10;74.00
13707;DHT22;6925;47.816;13.072;2022-09-30T16:02:51;16.10;74.90
13707;DHT22;6925;47.816;13.072;2022-09-30T16:05:19;16.10;74.90
13707;DHT22;6925;47.816;13.072;2022-09-30T16:08:39;16.10;75.40
13707;DHT22;6925;47.816;13.072;2022-09-30T16:14:51;16.10;75.80
13707;DHT22;6925;47.816;13.072;2022-09-30T16:17:22;16.10;75.20
13707;DHT22;6925;47.816;13.072;2022-09-30T16:19:50;16.00;76.40
13707;DHT22;6925;47.816;13.072;2022-09-30T16:22:47;16.00;75.90
13707;DHT22;6925;47.816;13.072;2022-09-30T16:25:20;16.00;76.10
13707;DHT22;6925;47.816;13.072;2022-09-30T16:27:48;16.00;76.30
13707;DHT22;6925;47.816;13.072;2022-09-30T16:30:20;15.90;76.10
13707;DHT22;6925;47.816;13.072;2022-09-30T16:32:50;15.90;76.20
13707;DHT22;6925;47.816;13.072;2022-09-30T16:35:19;15.90;76.60
13707;DHT22;6925;47.816;13.072;2022-09-30T16:38:00;15.90;76.50
13707;DHT22;6925;47.816;13.072;2022-09-30T16:40:41;15.90;76.70
13707;DHT22;6925;47.816;13.072;2022-09-30T16:43:10;15.90;76.40
13707;DHT22;6925;47.816;13.072;2022-09-30T16:45:43;15.80;76.60
13707;DHT22;6925;47.816;13.072;2022-09-30T16:51:42;15.70;76.90
13707;DHT22;6925;47.816;13.072;2022-09-30T16:54:22;15.60;77.30
13707;DHT22;6925;47.816;13.072;2022-09-30T16:56:52;15.60;77.20
13707;DHT22;6925;47.816;13.072;2022-09-30T16:59:19;15.60;76.90
13707;DHT22;6925;47.816;13.072;2022-09-30T17:01:47;15.50;77.20
13707;DHT22;6925;47.816;13.072;2022-09-30T17:04:15;15.50;77.10
13707;DHT22;6925;47.816;13.072;2022-09-30T17:06:43;15.50;77.30
13707;DHT22;6925;47.816;13.072;2022-09-30T17:09:10;15.50;77.30
13707;DHT22;6925;47.816;13.072;2022-09-30T17:11:38;15.40;77.00
13707;DHT22;6925;47.816;13.072;2022-09-30T17:14:06;15.40;77.10
13707;DHT22;6925;47.816;13.072;2022-09-30T17:16:34;15.30;77.40
13707;DHT22;6925;47.816;13.072;2022-09-30T17:19:03;15.30;77.40
13707;DHT22;6925;47.816;13.072;2022-09-30T17:21:30;15.30;77.60
13707;DHT22;6925;47.816;13.072;2022-09-30T17:23:58;15.20;77.60
13707;DHT22;6925;47.816;13.072;2022-09-30T17:26:25;15.20;77.90
13707;DHT22;6925;47.816;13.072;2022-09-30T17:28:53;15.10;78.00
13707;DHT22;6925;47.816;13.072;2022-09-30T17:31:21;15.10;78.20
13707;DHT22;6925;47.816;13.072;2022-09-30T17:33:51;15.10;78.30
13707;DHT22;6925;47.816;13.072;2022-09-30T17:40:21;15.00;78.90
13707;DHT22;6925;47.816;13.072;2022-09-30T17:46:46;14.90;78.80
13707;DHT22;6925;47.816;13.072;2022-09-30T17:49:32;14.90;79.10
13707;DHT22;6925;47.816;13.072;2022-09-30T17:52:13;14.90;79.40
13707;DHT22;6925;47.816;13.072;2022-09-30T17:54:45;14.80;79.40
13707;DHT22;6925;47.816;13.072;2022-09-30T17:57:38;14.80;79.40
13707;DHT22;6925;47.816;13.072;2022-09-30T18:00:20;14.80;79.50
13707;DHT22;6925;47.816;13.072;2022-09-30T18:03:01;14.70;79.40
13707;DHT22;6925;47.816;13.072;2022-09-30T18:05:31;14.70;79.60
13707;DHT22;6925;47.816;13.072;2022-09-30T18:08:12;14.70;80.00
13707;DHT22;6925;47.816;13.072;2022-09-30T18:10:41;14.70;79.90
13707;DHT22;6925;47.816;13.072;2022-09-30T18:13:26;14.70;79.90
13707;DHT22;6925;47.816;13.072;2022-09-30T18:15:58;14.60;79.80
13707;DHT22;6925;47.816;13.072;2022-09-30T18:18:45;14.60;79.80
13707;DHT22;6925;47.816;13.072;2022-09-30T18:21:26;14.50;79.90
13707;DHT22;6925;47.816;13.072;2022-09-30T18:23:55;14.50;79.70
13707;DHT22;6925;47.816;13.072;2022-09-30T18:26:36;14.40;79.70
13707;DHT22;6925;47.816;13.072;2022-09-30T18:29:05;14.40;79.80
13707;DHT22;6925;47.816;13.072;2022-09-30T18:31:37;14.40;79.90
13707;DHT22;6925;47.816;13.072;2022-09-30T18:34:18;14.30;79.80
13707;DHT22;6925;47.816;13.072;2022-09-30T18:36:48;14.30;80.00
13707;DHT22;6925;47.816;13.072;2022-09-30T18:39:15;14.30;79.90
13707;DHT22;6925;47.816;13.072;2022-09-30T18:41:55;14.30;80.00
13707;DHT22;6925;47.816;13.072;2022-09-30T18:47:34;14.20;79.90
13707;DHT22;6925;47.816;13.072;2022-09-30T18:50:04;14.10;79.60
13707;DHT22;6925;47.816;13.072;2022-09-30T18:52:34;14.10;79.70
13707;DHT22;6925;47.816;13.072;2022-09-30T18:55:17;14.00;79.90
13707;DHT22;6925;47.816;13.072;2022-09-30T18:57:58;14.00;79.80
13707;DHT22;6925;47.816;13.072;2022-09-30T19:00:26;14.00;80.10
13707;DHT22;6925;47.816;13.072;2022-09-30T19:03:11;14.00;80.80
13707;DHT22;6925;47.816;13.072;2022-09-30T19:05:49;13.90;80.10
13707;DHT22;6925;47.816;13.072;2022-09-30T19:08:32;13.90;80.00
13707;DHT22;6925;47.816;13.072;2022-09-30T19:11:04;13.80;79.90
13707;DHT22;6925;47.816;13.072;2022-09-30T19:13:46;13.80;80.30
13707;DHT22;6925;47.816;13.072;2022-09-30T19:16:15;13.70;80.00
13707;DHT22;6925;47.816;13.072;2022-09-30T19:18:59;13.70;80.10
13707;DHT22;6925;47.816;13.072;2022-09-30T19:21:35;13.60;80.00
13707;DHT22;6925;47.816;13.072;2022-09-30T19:24:07;13.60;80.30
13707;DHT22;6925;47.816;13.072;2022-09-30T19:26:36;13.60;80.10
13707;DHT22;6925;47.816;13.072;2022-09-30T19:29:04;13.50;80.30
13707;DHT22;6925;47.816;13.072;2022-09-30T19:31:34;13.50;80.40
13707;DHT22;6925;47.816;13.072;2022-09-30T19:34:20;13.50;80.00
13707;DHT22;6925;47.816;13.072;2022-09-30T19:36:47;13.40;80.30
13707;DHT22;6925;47.816;13.072;2022-09-30T19:39:29;13.40;80.70
13707;DHT22;6925;47.816;13.072;2022-09-30T19:41:57;13.40;80.70
13707;DHT22;6925;47.816;13.072;2022-09-30T19:44:27;13.30;80.60
13707;DHT22;6925;47.816;13.072;2022-09-30T19:47:09;13.40;80.80
13707;DHT22;6925;47.816;13.072;2022-09-30T19:49:43;13.30;80.80
13707;DHT22;6925;47.816;13.072;2022-09-30T19:52:27;13.30;80.70
13707;DHT22;6925;47.816;13.072;2022-09-30T19:55:10;13.30;80.60
13707;DHT22;6925;47.816;13.072;2022-09-30T19:57:38;13.20;80.80
13707;DHT22;6925;47.816;13.072;2022-09-30T20:00:08;13.20;80.70
13707;DHT22;6925;47.816;13.072;2022-09-30T20:02:49;13.20;80.70
13707;DHT22;6925;47.816;13.072;2022-09-30T20:05:20;13.20;80.80
13707;DHT22;6925;47.816;13.072;2022-09-30T20:07:56;13.20;80.30
13707;DHT22;6925;47.816;13.072;2022-09-30T20:10:25;13.10;80.50
13707;DHT22;6925;47.816;13.072;2022-09-30T20:12:52;13.00;80.70
13707;DHT22;6925;47.816;13.072;2022-09-30T20:15:21;13.00;81.10
13707;DHT22;6925;47.816;13.072;2022-09-30T20:18:06;13.00;81.10
13707;DHT22;6925;47.816;13.072;2022-09-30T20:20:48;13.00;81.50
13707;DHT22;6925;47.816;13.072;2022-09-30T20:23:18;13.00;81.60
13707;DHT22;6925;47.816;13.072;2022-09-30T20:25:47;13.00;82.00
13707;DHT22;6925;47.816;13.072;2022-09-30T20:28:16;13.00;82.20
13707;DHT22;6925;47.816;13.072;2022-09-30T20:30:43;12.90;82.50
13707;DHT22;6925;47.816;13.072;2022-09-30T20:33:13;13.00;82.60
13707;DHT22;6925;47.816;13.072;2022-09-30T20:35:41;13.00;82.40
13707;DHT22;6925;47.816;13.072;2022-09-30T20:38:11;13.00;82.00
13707;DHT22;6925;47.816;13.072;2022-09-30T20:40:40;13.00;82.10
13707;DHT22;6925;47.816;13.072;2022-09-30T20:43:07;12.90;82.20
13707;DHT22;6925;47.816;13.072;2022-09-30T20:45:35;13.00;82.60
13707;DHT22;6925;47.816;13.072;2022-09-30T20:48:05;13.00;82.60
13707;DHT22;6925;47.816;13.072;2022-09-30T20:50:33;13.00;82.40
13707;DHT22;6925;47.816;13.072;2022-09-30T20:53:05;12.90;82.40
13707;DHT22;6925;47.816;13.072;2022-09-30T20:55:37;12.90;82.80
13707;DHT22;6925;47.816;13.072;2022-09-30T20:58:07;13.00;83.10
13707;DHT22;6925;47.816;13.072;2022-09-30T21:00:37;13.00;83.10
13707;DHT22;6925;47.816;13.072;2022-09-30T21:03:06;13.00;83.00
13707;DHT22;6925;47.816;13.072;2022-09-30T21:05:34;13.00;83.00
13707;DHT22;6925;47.816;13.072;2022-09-30T21:08:02;13.00;82.80
13707;DHT22;6925;47.816;13.072;2022-09-30T21:10:34;13.00;83.00
13707;DHT22;6925;47.816;13.072;2022-09-30T21:13:07;13.00;83.00
13707;DHT22;6925;47.816;13.072;2022-09-30T21:15:36;13.00;83.10
13707;DHT22;6925;47.816;13.072;2022-09-30T21:18:04;13.00;82.80
13707;DHT22;6925;47.816;13.072;2022-09-30T21:20:31;13.00;83.00
13707;DHT22;6925;47.816;13.072;2022-09-30T21:22:58;13.00;83.20
13707;DHT22;6925;47.816;13.072;2022-09-30T21:25:26;13.10;83.30
13707;DHT22;6925;47.816;13.072;2022-09-30T21:27:56;13.10;83.00
13707;DHT22;6925;47.816;13.072;2022-09-30T21:30:24;13.00;83.00
13707;DHT22;6925;47.816;13.072;2022-09-30T21:32:51;13.10;83.30
13707;DHT22;6925;47.816;13.072;2022-09-30T21:35:18;13.10;83.30
13707;DHT22;6925;47.816;13.072;2022-09-30T21:37:47;13.10;83.50
13707;DHT22;6925;47.816;13.072;2022-09-30T21:40:15;13.20;83.50
13707;DHT22;6925;47.816;13.072;2022-09-30T21:42:42;13.10;83.50
13707;DHT22;6925;47.816;13.072;2022-09-30T21:45:12;13.20;83.50
13707;DHT22;6925;47.816;13.072;2022-09-30T21:47:39;13.20;83.70
13707;DHT22;6925;47.816;13.072;2022-09-30T21:50:06;13.20;83.70
13707;DHT22;6925;47.816;13.072;2022-09-30T21:52:36;13.20;83.70
13707;DHT22;6925;47.816;13.072;2022-09-30T21:55:04;13.20;83.70
13707;DHT22;6925;47.816;13.072;2022-09-30T21:57:33;13.30;83.60
13707;DHT22;6925;47.816;13.072;2022-09-30T22:00:03;13.30;83.70
13707;DHT22;6925;47.816;13.072;2022-09-30T22:02:34;13.30;83.70
13707;DHT22;6925;47.816;13.072;2022-09-30T22:05:09;13.30;83.70
13707;DHT22;6925;47.816;13.072;2022-09-30T22:07:37;13.20;83.70
13707;DHT22;6925;47.816;13.072;2022-09-30T22:10:06;13.20;84.50
13707;DHT22;6925;47.816;13.072;2022-09-30T22:12:36;13.30;84.30
13707;DHT22;6925;47.816;13.072;2022-09-30T22:15:13;13.30;84.60
13707;DHT22;6925;47.816;13.072;2022-09-30T22:17:44;13.30;84.40